Flight Track Log - Related Links

Times and Time Zones

All times are in EDT time to prevent confusion due to time zone crossing. See the N960DL flight status page for this flight to view local times or setup timezone preferences in your user account.

Time Position Orientation Groundspeed Altitude Reporting Facility
EDT Latitude Longitude Course Direction KTS MPH feet Rate Location/Type
Thu 03:30:37 PM 33.6500 -84.3333 323° Northwest 228 262 3,600  Level Atlanta TRACON
Thu 03:31:37 PM 33.6667 -84.2500 76° East 259 298 6,500 2,750 Climbing Atlanta TRACON
Thu 03:32:00 PM 33.8280 -84.1667 North  Level FlightAware Approximate
Thu 03:32:37 PM 33.7167 -84.1833 48° Northeast 287 330 9,100  Level Atlanta TRACON
Thu 03:33:00 PM 33.9213 -84.2546 320° Northwest  Level FlightAware Approximate
Thu 03:34:00 PM 34.0133 -84.3466 320° Northwest  Level FlightAware Approximate
Thu 03:34:44 PM 33.8756 -84.2139 351° North 301 346 9,900  Level Atlanta Center
Thu 03:35:00 PM 34.1096 -84.4253 323° Northwest  Level FlightAware Approximate
Thu 03:35:44 PM 33.9567 -84.2942 321° Northwest 343 395 12,400  Level Atlanta Center
Thu 03:36:00 PM 34.2052 -84.5122 323° Northwest  Level FlightAware Approximate
Thu 03:36:44 PM 34.0483 -84.3847 321° Northwest 383 441 14,900  Level Atlanta Center
Thu 03:37:44 PM 34.1503 -84.4706 325° Northwest 422 486 17,300 2,050 Climbing Atlanta Center
Thu 03:38:44 PM 34.2461 -84.5589 323° Northwest 430 495 19,000 1,600 Climbing Atlanta Center
Thu 03:39:44 PM 34.3461 -84.6125 336° Northwest 436 502 20,500 1,650 Climbing Atlanta Center
Thu 03:40:44 PM 34.4711 -84.6408 349° North 441 507 22,300 1,650 Climbing Atlanta Center
Thu 03:41:44 PM 34.5983 -84.6697 349° North 459 528 23,800 1,800 Climbing Atlanta Center
Thu 03:42:44 PM 34.7336 -84.7136 345° North 465 535 25,900 2,050 Climbing Atlanta Center
Thu 03:43:44 PM 34.8522 -84.7703 339° North 458 527 27,900 1,950 Climbing Atlanta Center
Thu 03:44:44 PM 34.9667 -84.8219 340° North 452 520 29,800 1,600 Climbing Atlanta Center
Thu 03:45:44 PM 35.0853 -84.8689 342° North 447 514 31,100 1,100 Climbing Atlanta Center
Thu 03:46:44 PM 35.2019 -84.9208 340° North 447 514 32,000 450 Climbing Atlanta Center
Thu 03:47:44 PM 35.3164 -84.9703 341° North 447 514 32,000  Level Atlanta Center
Thu 03:48:44 PM 35.4161 -85.0147 340° North 442 509 32,000  Level Atlanta Center
Thu 03:49:44 PM 35.5325 -85.0672 340° North 442 509 32,000  Level Atlanta Center
Thu 03:50:44 PM 35.6447 -85.1197 339° North 437 503 32,000  Level Atlanta Center
Thu 03:51:44 PM 35.7547 -85.1750 338° Northwest 432 497 32,000  Level Atlanta Center
Thu 03:52:44 PM 35.8669 -85.2250 340° North 432 497 32,000  Level Atlanta Center
Thu 03:53:44 PM 35.9833 -85.2808 339° North 432 497 32,000 590 Level Atlanta Center
Thu 03:55:37 PM 36.1939 -85.3533 344° North 438 504 33,700 686 Climbing Indianapolis Center
Thu 03:56:39 PM 36.3339 -85.3889 348° North 428 493 34,000 48 Climbing Indianapolis Center
Thu 03:57:41 PM 36.4528 -85.4128 351° North 429 494 33,800 -823 Descending Indianapolis Center
Thu 03:58:43 PM 36.5725 -85.4389 350° North 434 499 32,300 -871 Descending Indianapolis Center
Thu 03:59:45 PM 36.6917 -85.4717 348° North 438 504 32,000 -145 Descending Indianapolis Center
Thu 04:00:47 PM 36.8108 -85.5036 348° North 439 505 32,000  Level Indianapolis Center
Thu 04:01:49 PM 36.9333 -85.5358 348° North 443 510 32,000  Level Indianapolis Center
Thu 04:02:51 PM 37.0728 -85.5814 345° North 437 503 32,000  Level Indianapolis Center
Thu 04:03:53 PM 37.1867 -85.6264 343° North 436 502 32,000  Level Indianapolis Center
Thu 04:04:55 PM 37.2964 -85.6683 343° North 436 502 32,000  Level Indianapolis Center
Thu 04:05:57 PM 37.4147 -85.7108 344° North 440 506 32,000  Level Indianapolis Center
Thu 04:06:59 PM 37.5322 -85.7556 343° North 440 506 32,000  Level Indianapolis Center
Thu 04:08:01 PM 37.6719 -85.8081 343° North 438 504 32,000  Level Indianapolis Center
Thu 04:09:04 PM 37.7875 -85.8517 343° North 434 499 32,000  Level Indianapolis Center
Thu 04:10:06 PM 37.9047 -85.8967 343° North 437 503 32,000  Level Indianapolis Center
Thu 04:11:08 PM 38.0208 -85.9386 344° North 435 501 32,000  Level Indianapolis Center
Thu 04:12:10 PM 38.1378 -85.9831 343° North 437 503 32,000  Level Indianapolis Center
Thu 04:13:12 PM 38.2553 -86.0264 344° North 440 506 32,000  Level Indianapolis Center
Thu 04:14:14 PM 38.3992 -86.0817 343° North 451 519 32,000  Level Indianapolis Center
Thu 04:15:16 PM 38.5197 -86.1275 343° North 453 521 32,000  Level Indianapolis Center
Thu 04:16:18 PM 38.6389 -86.1739 343° North 450 518 32,000  Level Indianapolis Center
Thu 04:17:20 PM 38.7578 -86.2206 343° North 448 516 32,000  Level Indianapolis Center
Thu 04:18:22 PM 38.8872 -86.2706 343° North 448 516 32,000  Level Indianapolis Center
Thu 04:19:24 PM 39.0064 -86.3178 343° North 447 514 32,000  Level Indianapolis Center
Thu 04:20:26 PM 39.1250 -86.3656 343° North 447 514 32,000  Level Indianapolis Center
Thu 04:21:28 PM 39.2450 -86.4136 343° North 449 517 32,000  Level Indianapolis Center
Thu 04:22:30 PM 39.3639 -86.4619 343° North 447 514 32,000  Level Indianapolis Center
Thu 04:23:32 PM 39.5058 -86.5194 343° North 443 510 32,000  Level Indianapolis Center
Thu 04:24:34 PM 39.6250 -86.5686 342° North 443 510 32,000  Level Indianapolis Center
Thu 04:25:36 PM 39.7442 -86.6181 342° North 443 510 32,000  Level Indianapolis Center
Thu 04:26:38 PM 39.8631 -86.6658 343° North 443 510 32,000  Level Indianapolis Center
Thu 04:27:41 PM 39.9825 -86.7128 343° North 444 511 32,000  Level Indianapolis Center
Thu 04:28:43 PM 40.0972 -86.7767 337° Northwest 448 516 32,000  Level Indianapolis Center
Thu 04:29:45 PM 40.2081 -86.8467 334° Northwest 445 512 32,000  Level Indianapolis Center
Thu 04:30:47 PM 40.3186 -86.9161 334° Northwest 442 509 32,000  Level Indianapolis Center
Thu 04:31:49 PM 40.4519 -86.9997 334° Northwest 443 510 32,000  Level Indianapolis Center
Thu 04:32:51 PM 40.5647 -87.0683 335° Northwest 445 512 32,000  Level Indianapolis Center
Thu 04:33:53 PM 40.6900 -87.0847 354° North 450 518 32,000  Level Indianapolis Center
Thu 04:34:55 PM 40.8117 -87.1014 354° North 444 511 32,000  Level Indianapolis Center
Thu 04:35:57 PM 40.9372 -87.1164 355° North 450 518 32,000  Level Indianapolis Center
Thu 04:36:59 PM 41.0611 -87.1314 355° North 448 516 32,000  Level Indianapolis Center
Thu 04:38:01 PM 41.2106 -87.1500 355° North 449 517 32,000 -625 Level Indianapolis Center
Thu 04:39:23 PM 41.3639 -87.1733 353° North 439 505 30,500 -2,125 Descending Chicago Center
Thu 04:40:25 PM 41.4889 -87.1906 354° North 453 521 26,900 -3,097 Descending Chicago Center
Thu 04:41:27 PM 41.6369 -87.2106 354° North 451 519 24,100 -1,597 Descending Chicago Center
Thu 04:42:29 PM 41.7561 -87.2256 355° North 439 505 23,600 -1,161 Descending Chicago Center
Thu 04:43:31 PM 41.8736 -87.2428 354° North 431 496 21,700 -1,597 Descending Chicago Center
Thu 04:44:33 PM 41.9900 -87.2575 355° North 426 490 20,300 -1,306 Descending Chicago Center
Thu 04:45:35 PM 42.1031 -87.2703 355° North 414 476 19,000 -1,452 Descending Chicago Center
Thu 04:46:37 PM 42.2397 -87.2881 354° North 413 475 17,300 -1,403 Descending Chicago Center
Thu 04:47:39 PM 42.3439 -87.3022 354° North 406 467 16,100 -1,113 Descending Chicago Center
Thu 04:48:41 PM 42.4533 -87.3169 354° North 397 457 15,000 -1,403 Descending Chicago Center
Thu 04:49:43 PM 42.5589 -87.3306 355° North 384 442 13,200 -2,352 Descending Chicago Center
Thu 04:50:46 PM 42.6808 -87.3511 353° North 372 428 10,100 -1,536 Descending Chicago Center
Thu 04:51:48 PM 42.7578 -87.4297 323° Northwest 366 421 10,000 -48 Descending Chicago Center
Thu 04:52:50 PM 42.8231 -87.5325 311° West 370 426 10,000  Level Chicago Center
Thu 04:53:52 PM 42.8803 -87.6669 300° West 354 407 10,000 -387 Level Chicago Center
Thu 04:54:54 PM 42.9303 -87.7456 311° West 306 352 9,200 -1,790 Descending Chicago Center
Thu 04:55:56 PM 43.0075 -87.7500 358° North 280 322 6,300 -2,468 Descending Chicago Center
Thu 04:56:58 PM 43.0858 -87.7511 359° North 282 325 4,100 -1,210 Descending Chicago Center
Thu 04:58:00 PM 43.1183 -87.8261 301° West 256 295 3,800 -290 Descending Chicago Center

Login

Don't have an account? Register now (free) for customized features, flight alerts, and more!